FAPN

Pilanesberg International Airport

Pilanesberg, South Africa
METAR FAPN 161300Z AUTO 03006KT //// // ////// 30/13 Q1018
Observed Flight Rules
Dec-16 @ 13:00 UTC (2 hours ago)
Wind
30° at 6 knots
Temperatures Readings
Current 30°C / 86°F
Dewpoint 13°C / 55°F
Humidity 35%
Altimeter 30.06" Hg
Pressure 1018 hPa
Elevation 1039
METAR FAPN 161300Z AUTO 03006KT //// // ////// 30/13 Q1018
Observed Flight Rules
Dec-16 @ 13:00 UTC
(2 hours ago)
Wind
30° at 6 knots
Temperature Dewpoint
30°C / 86°F 13°C / 55°F
Humidity Altimeter Pressure
35% 30.06" Hg 1018 hPa